createdAt,value
2018-09-18T00:01:29.473Z,99218.98
2018-09-18T00:04:00.176Z,99214.72
2018-09-18T00:06:30.622Z,99217.45
2018-09-18T00:09:01.128Z,99221.86
2018-09-18T00:11:31.596Z,99226.84
2018-09-18T00:14:03.277Z,99223.55
2018-09-18T00:16:33.841Z,99221.90
2018-09-18T00:19:05.394Z,99230.17
2018-09-18T00:21:36.027Z,99222.87
2018-09-18T00:24:06.687Z,99217.24
2018-09-18T00:26:37.345Z,99226.00
2018-09-18T00:29:08.001Z,99223.55
2018-09-18T00:31:38.631Z,99224.83
2018-09-18T00:34:09.195Z,99223.66
2018-09-18T00:36:39.718Z,99223.75
2018-09-18T00:39:11.175Z,99226.04
2018-09-18T00:41:41.770Z,99223.87
2018-09-18T00:44:12.298Z,99230.38
2018-09-18T00:46:42.958Z,99226.80
2018-09-18T00:49:13.611Z,99226.52
2018-09-18T00:51:44.061Z,99227.48
2018-09-18T00:54:14.579Z,99229.48
2018-09-18T00:56:45.032Z,99228.16
2018-09-18T00:59:15.983Z,99224.39
2018-09-18T01:01:46.516Z,99220.94
2018-09-18T01:04:17.014Z,99215.16
2018-09-18T01:06:47.711Z,99214.03
2018-09-18T01:09:18.123Z,99210.91
2018-09-18T01:11:48.664Z,99209.37
2018-09-18T01:14:19.271Z,99204.92
2018-09-18T01:16:50.310Z,99203.44
2018-09-18T01:19:20.947Z,99207.05
2018-09-18T01:21:51.605Z,99207.05
2018-09-18T01:24:22.227Z,99211.03
2018-09-18T01:26:52.597Z,99211.03
2018-09-18T01:29:23.023Z,99212.03
2018-09-18T01:31:53.530Z,99205.05
2018-09-18T01:34:24.505Z,99199.75
2018-09-18T01:36:55.102Z,99197.10
2018-09-18T01:39:25.738Z,99195.09
2018-09-18T01:41:56.411Z,99196.09
2018-09-18T01:44:26.819Z,99190.45
2018-09-18T01:46:57.448Z,99195.74
2018-09-18T01:49:27.926Z,99200.77
2018-09-18T01:51:58.568Z,99205.22
2018-09-18T01:54:29.232Z,99202.09
2018-09-18T01:57:00.638Z,99213.51
2018-09-18T01:59:31.369Z,99212.00
2018-09-18T02:02:02.649Z,99214.55
2018-09-18T02:04:33.703Z,99211.64
2018-09-18T02:07:04.720Z,99215.25
2018-09-18T02:09:35.424Z,99213.81
2018-09-18T02:12:06.297Z,99213.66
2018-09-18T02:14:37.203Z,99220.11
2018-09-18T02:17:07.769Z,99208.21
2018-09-18T02:19:38.327Z,99213.98
2018-09-18T02:22:09.187Z,99213.66
2018-09-18T02:24:39.907Z,99209.37
2018-09-18T02:27:10.432Z,99210.95
2018-09-18T02:29:41.060Z,99207.03
2018-09-18T02:32:11.639Z,99208.55
2018-09-18T02:34:42.252Z,99211.20
2018-09-18T02:37:13.450Z,99213.84
2018-09-18T02:39:44.049Z,99210.03
2018-09-18T02:42:14.546Z,99214.80
2018-09-18T02:44:45.054Z,99213.31
2018-09-18T02:47:15.737Z,99216.02
2018-09-18T02:49:46.141Z,99204.43
2018-09-18T02:52:16.783Z,99207.08
2018-09-18T02:54:47.393Z,99210.23
2018-09-18T02:57:18.017Z,99213.01
2018-09-18T02:59:48.450Z,99207.72
2018-09-18T03:02:18.999Z,99209.55
2018-09-18T03:04:49.361Z,99211.36
2018-09-18T03:07:20.554Z,99206.75
2018-09-18T03:09:51.152Z,99204.74
2018-09-18T03:12:21.661Z,99210.67
2018-09-18T03:14:52.255Z,99207.67
2018-09-18T03:17:22.860Z,99207.98
2018-09-18T03:19:53.426Z,99209.25
2018-09-18T03:22:23.846Z,99208.26
2018-09-18T03:24:54.369Z,99200.63
2018-09-18T03:27:25.017Z,99200.48
2018-09-18T03:29:56.027Z,99194.30
2018-09-18T03:32:27.116Z,99195.98
2018-09-18T03:34:57.502Z,99197.94
2018-09-18T03:37:28.269Z,99200.27
2018-09-18T03:39:58.850Z,99199.59
2018-09-18T03:42:29.374Z,99203.13
2018-09-18T03:44:59.926Z,99203.04
2018-09-18T03:47:30.509Z,99203.67
2018-09-18T03:50:01.466Z,99197.70
2018-09-18T03:52:31.983Z,99199.66
2018-09-18T03:55:02.458Z,99203.52
2018-09-18T03:57:32.908Z,99199.22
2018-09-18T04:00:03.596Z,99197.55
2018-09-18T04:02:34.174Z,99197.91
2018-09-18T04:05:04.771Z,99203.88
2018-09-18T04:07:35.254Z,99208.80
2018-09-18T04:10:06.081Z,99206.85
2018-09-18T04:12:36.663Z,99202.25
2018-09-18T04:15:07.363Z,99207.75
2018-09-18T04:17:37.937Z,99210.59
2018-09-18T04:20:08.719Z,99213.63
2018-09-18T04:22:39.350Z,99210.59
2018-09-18T04:25:09.935Z,99213.52
2018-09-18T04:27:41.090Z,99209.22
2018-09-18T04:30:11.597Z,99215.47
2018-09-18T04:32:42.181Z,99215.14
2018-09-18T04:35:12.780Z,99212.98
2018-09-18T04:37:43.497Z,99214.03
2018-09-18T04:40:13.955Z,99211.38
2018-09-18T04:42:44.544Z,99213.46
2018-09-18T04:45:15.169Z,99215.14
2018-09-18T04:47:45.649Z,99215.14
2018-09-18T04:50:16.191Z,99210.18
2018-09-18T04:52:46.870Z,99213.82
2018-09-18T04:55:17.451Z,99216.80
2018-09-18T04:57:48.031Z,99223.13
2018-09-18T05:00:18.545Z,99227.09
2018-09-18T05:02:50.327Z,99229.80
2018-09-18T05:05:20.961Z,99231.95
2018-09-18T05:07:51.413Z,99230.13
2018-09-18T05:10:21.995Z,99234.98
2018-09-18T05:12:52.495Z,99234.71
2018-09-18T05:15:23.042Z,99235.04
2018-09-18T05:17:53.623Z,99239.91
2018-09-18T05:20:24.596Z,99241.07
2018-09-18T05:22:55.329Z,99241.07
2018-09-18T05:25:26.029Z,99243.92
2018-09-18T05:27:56.496Z,99239.95
2018-09-18T05:30:27.224Z,99244.56
2018-09-18T05:32:58.310Z,99241.43
2018-09-18T05:35:29.543Z,99245.81
2018-09-18T05:38:00.007Z,99248.84
2018-09-18T05:40:30.490Z,99247.13
2018-09-18T05:43:01.022Z,99249.55
2018-09-18T05:45:31.448Z,99242.67
2018-09-18T05:48:02.004Z,99243.96
2018-09-18T05:50:32.946Z,99242.52
2018-09-18T05:53:03.833Z,99245.86
2018-09-18T05:55:35.106Z,99247.22
2018-09-18T05:58:05.725Z,99254.20
2018-09-18T06:00:36.303Z,99245.98
2018-09-18T06:03:06.797Z,99247.59
2018-09-18T06:05:37.142Z,99246.61
2018-09-18T06:08:07.801Z,99246.45
2018-09-18T06:10:38.593Z,99247.25
2018-09-18T06:13:09.326Z,99255.73
2018-09-18T06:15:39.982Z,99257.28
2018-09-18T06:18:10.939Z,99258.82
2018-09-18T06:20:43.045Z,99257.52
2018-09-18T06:23:13.992Z,99253.59
2018-09-18T06:25:45.272Z,99258.18
2018-09-18T06:28:16.258Z,99255.58
2018-09-18T06:30:47.098Z,99262.41
2018-09-18T06:33:17.543Z,99253.94
2018-09-18T06:35:48.742Z,99262.05
2018-09-18T06:38:19.650Z,99261.41
2018-09-18T06:40:53.409Z,99264.28
2018-09-18T06:43:24.965Z,99258.72
2018-09-18T06:45:56.099Z,99257.92
2018-09-18T06:48:27.155Z,99266.20
2018-09-18T06:50:58.866Z,99263.39
2018-09-18T06:53:29.662Z,99268.84
2018-09-18T06:56:01.757Z,99270.96
2018-09-18T06:58:32.358Z,99270.31
2018-09-18T07:01:04.140Z,99271.59
2018-09-18T07:03:34.858Z,99273.03
2018-09-18T07:06:05.680Z,99266.03
2018-09-18T07:08:36.968Z,99263.84
2018-09-18T07:11:08.363Z,99269.55
2018-09-18T07:13:39.156Z,99263.80
2018-09-18T07:16:10.311Z,99260.48
2018-09-18T07:18:41.048Z,99257.70
2018-09-18T07:21:12.519Z,99259.73
2018-09-18T07:23:43.481Z,99264.64
2018-09-18T07:26:14.320Z,99265.78
2018-09-18T07:28:44.983Z,99265.09
2018-09-18T07:31:15.780Z,99254.46
2018-09-18T07:33:47.328Z,99263.84
2018-09-18T07:36:17.779Z,99257.05
2018-09-18T07:38:48.481Z,99258.34
2018-09-18T07:41:19.011Z,99263.11
2018-09-18T07:43:49.790Z,99264.48
2018-09-18T07:46:20.540Z,99272.86
2018-09-18T07:48:52.031Z,99272.10
2018-09-18T07:51:22.778Z,99277.09
2018-09-18T07:53:53.449Z,99281.99
2018-09-18T07:56:23.843Z,99279.96
2018-09-18T07:58:54.461Z,99283.44
2018-09-18T08:01:25.442Z,99273.73
2018-09-18T08:03:56.650Z,99273.05
2018-09-18T08:06:27.324Z,99272.20
2018-09-18T08:08:58.138Z,99267.95
2018-09-18T08:11:28.745Z,99271.63
2018-09-18T08:13:59.600Z,99279.81
2018-09-18T08:16:29.977Z,99277.20
2018-09-18T08:19:01.278Z,99281.16
2018-09-18T08:21:32.075Z,99278.20
2018-09-18T08:24:02.718Z,99273.22
2018-09-18T08:26:33.912Z,99276.56
2018-09-18T08:29:04.485Z,99268.75
2018-09-18T08:31:36.011Z,99268.88
2018-09-18T08:34:06.607Z,99273.31
2018-09-18T08:36:38.337Z,99271.63
2018-09-18T08:39:11.012Z,99275.05
2018-09-18T08:41:41.429Z,99280.59
2018-09-18T08:44:11.988Z,99278.06
2018-09-18T08:46:42.528Z,99271.27
2018-09-18T08:49:13.607Z,99275.17
2018-09-18T08:51:44.461Z,99278.45
2018-09-18T08:54:15.052Z,99285.05
2018-09-18T08:56:46.545Z,99270.61
2018-09-18T08:59:17.195Z,99266.39
2018-09-18T09:01:48.249Z,99264.11
2018-09-18T09:04:19.115Z,99266.38
2018-09-18T09:06:49.923Z,99264.27
2018-09-18T09:09:20.806Z,99259.50
2018-09-18T09:11:51.427Z,99266.83
2018-09-18T09:14:22.109Z,99266.30
2018-09-18T09:16:52.978Z,99264.69
2018-09-18T09:19:24.519Z,99261.95
2018-09-18T09:21:55.382Z,99261.05
2018-09-18T09:24:26.359Z,99265.59
2018-09-18T09:26:57.666Z,99269.53
2018-09-18T09:29:28.345Z,99263.75
2018-09-18T09:31:59.349Z,99257.80
2018-09-18T09:34:30.098Z,99263.78
2018-09-18T09:37:01.567Z,99257.91
2018-09-18T09:39:33.974Z,99258.72
2018-09-18T09:42:05.706Z,99253.44
2018-09-18T09:44:36.345Z,99247.75
2018-09-18T09:47:07.288Z,99248.13
2018-09-18T09:49:38.102Z,99249.19
2018-09-18T09:52:10.016Z,99251.30
2018-09-18T09:54:41.345Z,99247.69
2018-09-18T09:57:12.549Z,99253.50
2018-09-18T09:59:43.130Z,99248.27
2018-09-18T10:02:17.553Z,99246.14
2018-09-18T10:04:48.119Z,99238.47
2018-09-18T10:07:19.528Z,99241.40
2018-09-18T10:09:50.068Z,99242.69
2018-09-18T10:12:21.496Z,99241.97
2018-09-18T10:14:52.038Z,99241.95
2018-09-18T10:17:23.133Z,99230.27
2018-09-18T10:19:53.791Z,99222.62
2018-09-18T10:22:24.452Z,99213.88
2018-09-18T10:24:55.311Z,99207.30
2018-09-18T10:27:25.788Z,99203.58
2018-09-18T10:29:57.059Z,99204.33
2018-09-18T10:32:28.831Z,99197.78
2018-09-18T10:34:59.828Z,99193.70
2018-09-18T10:37:30.403Z,99202.13
2018-09-18T10:40:00.983Z,99193.78
2018-09-18T10:42:31.488Z,99190.75
2018-09-18T10:45:02.183Z,99196.03
2018-09-18T10:47:33.255Z,99187.86
2018-09-18T10:50:03.850Z,99186.41
2018-09-18T10:52:34.943Z,99193.45
2018-09-18T10:55:06.548Z,99183.61
2018-09-18T10:57:37.416Z,99185.17
2018-09-18T11:00:09.791Z,99176.97
2018-09-18T11:02:41.351Z,99174.27
2018-09-18T11:05:12.091Z,99179.67
2018-09-18T11:07:43.059Z,99172.61
2018-09-18T11:10:14.663Z,99169.60
2018-09-18T11:12:46.149Z,99171.11
2018-09-18T11:15:16.988Z,99169.52
2018-09-18T11:17:48.094Z,99159.59
2018-09-18T11:20:18.605Z,99152.41
2018-09-18T11:22:49.085Z,99162.75
2018-09-18T11:25:19.709Z,99158.72
2018-09-18T11:27:50.346Z,99146.89
2018-09-18T11:30:20.890Z,99148.55
2018-09-18T11:32:51.856Z,99142.83
2018-09-18T11:35:22.867Z,99144.20
2018-09-18T11:37:53.605Z,99149.57
2018-09-18T11:40:37.320Z,99145.31
2018-09-18T11:43:08.956Z,99141.57
2018-09-18T11:45:39.848Z,99133.79
2018-09-18T11:48:16.206Z,99141.13
2018-09-18T11:50:48.169Z,99144.02
2018-09-18T11:53:21.236Z,99146.70
2018-09-18T11:55:52.226Z,99138.33
2018-09-18T11:58:23.579Z,99138.08
2018-09-18T12:00:55.188Z,99126.52
2018-09-18T12:03:26.794Z,99130.16
2018-09-18T12:05:59.196Z,99113.51
2018-09-18T12:08:29.722Z,99123.66
2018-09-18T12:11:00.522Z,99117.34
2018-09-18T12:13:31.193Z,99111.86
2018-09-18T12:16:02.615Z,99115.92
2018-09-18T12:18:33.222Z,99112.77
2018-09-18T12:21:04.328Z,99107.42
2018-09-18T12:23:34.917Z,99113.34
2018-09-18T12:26:06.074Z,99097.42
2018-09-18T12:28:38.019Z,99102.22
2018-09-18T12:31:11.212Z,99105.48
2018-09-18T12:33:51.119Z,99100.52
2018-09-18T12:36:24.163Z,99089.33
2018-09-18T12:38:57.064Z,99088.62
2018-09-18T12:41:35.683Z,99083.56
2018-09-18T12:44:07.758Z,99073.05
2018-09-18T12:46:38.419Z,99074.41
2018-09-18T12:49:09.212Z,99069.52
2018-09-18T12:51:39.686Z,99076.13
2018-09-18T12:54:10.184Z,99075.11
2018-09-18T12:56:41.117Z,99065.06
2018-09-18T12:59:11.636Z,99062.19
2018-09-18T13:01:43.093Z,99057.19
2018-09-18T13:04:13.620Z,99056.84
2018-09-18T13:06:44.100Z,99061.97
2018-09-18T13:09:15.669Z,99065.93
2018-09-18T13:11:46.112Z,99056.27
2018-09-18T13:14:17.343Z,99056.47
2018-09-18T13:16:47.773Z,99048.53
2018-09-18T13:19:20.395Z,99049.89
2018-09-18T13:21:53.840Z,99047.19
2018-09-18T13:24:25.885Z,99042.05
2018-09-18T13:26:58.507Z,99042.64
2018-09-18T13:29:33.416Z,99038.78
2018-09-18T13:32:09.319Z,99045.17
2018-09-18T13:34:43.003Z,99041.03
2018-09-18T13:37:16.535Z,99033.50
2018-09-18T13:39:47.096Z,99031.98
2018-09-18T13:42:17.854Z,99030.72
2018-09-18T13:44:49.033Z,99018.86
2018-09-18T13:47:19.893Z,99024.31
2018-09-18T13:49:50.605Z,99025.98
2018-09-18T13:52:21.305Z,99018.02
2018-09-18T13:54:52.084Z,99016.07
2018-09-18T13:57:23.021Z,99008.13
2018-09-18T13:59:53.856Z,99016.63
2018-09-18T14:02:24.901Z,99010.09
2018-09-18T14:04:56.291Z,99015.11
2018-09-18T14:07:26.989Z,99010.77
2018-09-18T14:09:59.504Z,99004.31
2018-09-18T14:12:31.812Z,99008.08
2018-09-18T14:15:03.400Z,99001.54
2018-09-18T14:17:34.602Z,99000.52
2018-09-18T14:20:06.051Z,99001.14
2018-09-18T14:22:37.928Z,98999.84
2018-09-18T14:25:08.417Z,98998.86
2018-09-18T14:27:39.685Z,98997.25
2018-09-18T14:30:10.620Z,98999.64
2018-09-18T14:32:41.484Z,98994.63
2018-09-18T14:35:12.421Z,98994.55
2018-09-18T14:37:46.867Z,98993.98
2018-09-18T14:40:18.636Z,99001.55
2018-09-18T14:42:49.751Z,98997.75
2018-09-18T14:45:20.490Z,98995.67
2018-09-18T14:47:53.628Z,98990.81
2018-09-18T14:50:26.086Z,98998.27
2018-09-18T14:52:59.323Z,99006.05
2018-09-18T14:55:32.729Z,99008.52
2018-09-18T14:58:03.578Z,99011.92
2018-09-18T15:00:34.844Z,99018.11
2018-09-18T15:03:05.973Z,99007.74
2018-09-18T15:05:36.818Z,99006.12
2018-09-18T15:08:07.683Z,98999.30
2018-09-18T15:10:38.527Z,99007.53
2018-09-18T15:13:09.224Z,99007.88
2018-09-18T15:15:41.296Z,99015.98
2018-09-18T15:18:11.985Z,99014.03
2018-09-18T15:20:42.590Z,99018.64
2018-09-18T15:23:13.200Z,99012.88
2018-09-18T15:25:44.379Z,99016.08
2018-09-18T15:28:14.930Z,99024.72
2018-09-18T15:30:45.941Z,99034.53
2018-09-18T15:33:16.903Z,99040.52
2018-09-18T15:35:47.519Z,99041.78
2018-09-18T15:38:18.580Z,99047.59
2018-09-18T15:40:49.549Z,99041.66
2018-09-18T15:43:20.501Z,99047.84
2018-09-18T15:45:51.543Z,99062.84
2018-09-18T15:48:22.310Z,99071.16
2018-09-18T15:50:52.920Z,99074.55
2018-09-18T15:53:25.472Z,99066.58
2018-09-18T15:55:57.897Z,99072.13
2018-09-18T15:58:28.539Z,99074.28
2018-09-18T16:00:59.258Z,99078.11
2018-09-18T16:03:30.412Z,99075.95
2018-09-18T16:06:01.766Z,99075.04
2018-09-18T16:08:32.950Z,99067.66
2018-09-18T16:11:04.133Z,99053.89
2018-09-18T16:13:34.742Z,99044.02
2018-09-18T16:16:05.799Z,99051.59
2018-09-18T16:18:36.490Z,99060.24
2018-09-18T16:21:07.101Z,99066.56
2018-09-18T16:23:37.773Z,99058.63
2018-09-18T16:26:08.461Z,99069.31
2018-09-18T16:28:39.143Z,99070.13
2018-09-18T16:31:09.912Z,99071.53
2018-09-18T16:33:40.576Z,99067.58
2018-09-18T16:36:11.576Z,99068.11
2018-09-18T16:38:42.511Z,99065.30
2018-09-18T16:41:13.851Z,99068.79
2018-09-18T16:43:44.393Z,99073.08
2018-09-18T16:46:15.248Z,99065.59
2018-09-18T16:48:46.414Z,99051.95
2018-09-18T16:51:17.453Z,99051.49
2018-09-18T16:53:49.323Z,99055.16
2018-09-18T16:56:21.770Z,99057.52
2018-09-18T16:58:53.874Z,99056.80
2018-09-18T17:01:26.390Z,99060.66
2018-09-18T17:03:57.407Z,99052.77
2018-09-18T17:06:29.985Z,99065.41
2018-09-18T17:09:00.760Z,99066.48
2018-09-18T17:11:31.432Z,99064.80
2018-09-18T17:14:02.599Z,99062.78
2018-09-18T17:16:33.779Z,99066.31
2018-09-18T17:19:05.911Z,99068.47
2018-09-18T17:21:37.313Z,99071.11
2018-09-18T17:24:08.656Z,99072.13
2018-09-18T17:26:40.935Z,99075.30
2018-09-18T17:29:12.111Z,99073.47
2018-09-18T17:31:44.743Z,99072.81
2018-09-18T17:34:16.122Z,99074.81
2018-09-18T17:36:47.936Z,99078.95
2018-09-18T17:39:18.874Z,99085.94
2018-09-18T17:41:50.081Z,99091.73
2018-09-18T17:44:21.378Z,99098.38
2018-09-18T17:46:52.171Z,99109.67
2018-09-18T17:49:22.794Z,99110.66
2018-09-18T17:51:54.037Z,99119.30
2018-09-18T17:54:24.862Z,99119.95
2018-09-18T17:56:56.496Z,99118.98
2018-09-18T17:59:28.699Z,99130.59
2018-09-18T18:02:01.501Z,99134.25
2018-09-18T18:04:32.680Z,99136.91
2018-09-18T18:07:04.452Z,99132.75
2018-09-18T18:09:35.709Z,99136.90
2018-09-18T18:12:07.056Z,99134.56
2018-09-18T18:14:38.266Z,99148.86
2018-09-18T18:17:09.278Z,99152.31
2018-09-18T18:19:40.196Z,99152.31
2018-09-18T18:22:10.946Z,99156.81
2018-09-18T18:24:41.900Z,99148.86
2018-09-18T18:27:14.452Z,99144.88
2018-09-18T18:29:47.475Z,99147.36
2018-09-18T18:32:19.586Z,99140.72
2018-09-18T18:34:50.626Z,99139.56
2018-09-18T18:37:21.457Z,99136.73
2018-09-18T18:39:52.104Z,99138.91
2018-09-18T18:42:23.449Z,99130.27
2018-09-18T18:44:56.067Z,99138.89
2018-09-18T18:47:29.866Z,99137.88
2018-09-18T18:50:02.246Z,99145.84
2018-09-18T18:52:33.802Z,99147.65
2018-09-18T18:55:05.373Z,99149.81
2018-09-18T18:57:40.779Z,99150.30
2018-09-18T19:00:14.084Z,99155.40
2018-09-18T19:02:45.957Z,99151.58
2018-09-18T19:05:17.687Z,99156.20
2018-09-18T19:07:50.250Z,99153.55
2018-09-18T19:10:21.894Z,99148.05
2018-09-18T19:12:53.635Z,99151.86
2018-09-18T19:15:26.603Z,99149.20
2018-09-18T19:17:57.606Z,99151.34
2018-09-18T19:20:29.024Z,99160.28
2018-09-18T19:23:01.525Z,99157.61
2018-09-18T19:25:35.933Z,99154.29
2018-09-18T19:28:11.939Z,99151.31
2018-09-18T19:30:42.987Z,99143.87
2018-09-18T19:33:13.996Z,99144.88
2018-09-18T19:35:52.268Z,99133.05
2018-09-18T19:38:29.064Z,99150.13
2018-09-18T19:41:00.207Z,99151.31
2018-09-18T19:43:31.718Z,99147.63
2018-09-18T19:46:03.103Z,99155.06
2018-09-18T19:48:42.616Z,99152.23
2018-09-18T19:51:14.466Z,99153.60
2018-09-18T19:53:45.582Z,99151.13
2018-09-18T19:56:17.562Z,99151.97
2018-09-18T19:58:50.963Z,99152.29
2018-09-18T20:01:25.094Z,99155.09
2018-09-18T20:03:59.128Z,99153.75
2018-09-18T20:06:31.845Z,99160.22
2018-09-18T20:09:04.790Z,99155.92
2018-09-18T20:11:38.752Z,99149.42
2018-09-18T20:14:11.349Z,99148.25
2018-09-18T20:16:42.559Z,99145.13
2018-09-18T20:19:13.441Z,99150.06
2018-09-18T20:21:44.895Z,99157.84
2018-09-18T20:24:15.629Z,99159.33
2018-09-18T20:26:46.938Z,99160.41
2018-09-18T20:29:17.690Z,99160.31
2018-09-18T20:31:48.485Z,99159.59
2018-09-18T20:34:19.536Z,99161.78
2018-09-18T20:36:50.490Z,99169.09
2018-09-18T20:39:21.361Z,99171.63
2018-09-18T20:41:52.541Z,99166.68
2018-09-18T20:44:23.534Z,99165.39
2018-09-18T20:46:54.172Z,99169.70
2018-09-18T20:49:25.112Z,99173.00
2018-09-18T20:51:55.947Z,99183.77
2018-09-18T20:54:26.655Z,99188.73
2018-09-18T20:56:57.978Z,99190.87
2018-09-18T20:59:29.537Z,99197.22
2018-09-18T21:02:00.278Z,99201.50
2018-09-18T21:04:31.064Z,99201.61
2018-09-18T21:07:01.736Z,99197.31
2018-09-18T21:09:32.293Z,99196.95
2018-09-18T21:12:02.827Z,99196.14
2018-09-18T21:14:33.768Z,99192.03
2018-09-18T21:17:05.345Z,99206.27
2018-09-18T21:19:36.242Z,99211.50
2018-09-18T21:22:10.050Z,99212.16
2018-09-18T21:24:40.551Z,99203.78
2018-09-18T21:27:11.224Z,99206.44
2018-09-18T21:29:41.948Z,99206.44
2018-09-18T21:32:12.616Z,99199.68
2018-09-18T21:34:43.379Z,99197.90
2018-09-18T21:37:13.898Z,99195.28
2018-09-18T21:39:44.451Z,99201.55
2018-09-18T21:42:15.348Z,99191.98
2018-09-18T21:44:46.117Z,99191.33
2018-09-18T21:47:16.761Z,99189.36
2018-09-18T21:49:47.328Z,99183.84
2018-09-18T21:52:17.857Z,99178.70
2018-09-18T21:54:48.582Z,99176.34
2018-09-18T21:57:19.468Z,99176.80
2018-09-18T21:59:50.442Z,99185.10
2018-09-18T22:02:21.196Z,99184.91
2018-09-18T22:04:52.017Z,99187.53
2018-09-18T22:07:22.793Z,99182.20
2018-09-18T22:09:53.370Z,99183.46
2018-09-18T22:12:23.983Z,99183.72
2018-09-18T22:14:54.767Z,99188.59
2018-09-18T22:17:25.572Z,99191.84
2018-09-18T22:19:56.289Z,99186.38
2018-09-18T22:22:27.078Z,99194.45
2018-09-18T22:24:57.541Z,99183.86
2018-09-18T22:27:28.197Z,99188.28
2018-09-18T22:29:58.873Z,99183.30
2018-09-18T22:32:29.674Z,99177.45
2018-09-18T22:35:00.601Z,99179.13
2018-09-18T22:37:31.332Z,99183.47
2018-09-18T22:40:02.004Z,99178.27
2018-09-18T22:42:32.635Z,99179.81
2018-09-18T22:45:03.771Z,99174.80
2018-09-18T22:47:34.881Z,99170.83
2018-09-18T22:50:05.566Z,99170.96
2018-09-18T22:52:36.247Z,99173.77
2018-09-18T22:55:07.061Z,99178.86
2018-09-18T22:57:37.927Z,99182.84
2018-09-18T23:00:09.277Z,99174.37
2018-09-18T23:02:39.972Z,99178.19
2018-09-18T23:05:10.738Z,99177.25
2018-09-18T23:07:41.391Z,99179.42
2018-09-18T23:10:11.961Z,99171.95
2018-09-18T23:12:42.534Z,99160.53
2018-09-18T23:15:13.103Z,99161.17
2018-09-18T23:17:43.681Z,99158.77
2018-09-18T23:20:14.186Z,99164.38
2018-09-18T23:22:44.946Z,99161.70
2018-09-18T23:25:15.475Z,99160.25
2018-09-18T23:27:45.976Z,99166.48
2018-09-18T23:30:16.639Z,99167.00
2018-09-18T23:32:47.154Z,99166.91
2018-09-18T23:35:17.989Z,99169.45
2018-09-18T23:37:48.541Z,99169.25
2018-09-18T23:40:19.178Z,99176.48
2018-09-18T23:42:49.679Z,99175.53
2018-09-18T23:45:20.381Z,99176.22
2018-09-18T23:47:51.178Z,99175.53
2018-09-18T23:50:21.637Z,99175.05
2018-09-18T23:52:52.270Z,99177.74
2018-09-18T23:55:22.821Z,99179.32
2018-09-18T23:57:53.356Z,99169.86
